sensor_id;sensor_type;location;lat;lon;timestamp;P1;durP1;ratioP1;P2;durP2;ratioP2
15049;SDS011;7622;42.724;23.250;2023-04-24T00:01:57;9.70;;;6.80;;
15049;SDS011;7622;42.724;23.250;2023-04-24T00:04:28;10.00;;;6.97;;
15049;SDS011;7622;42.724;23.250;2023-04-24T00:06:56;8.50;;;6.07;;
15049;SDS011;7622;42.724;23.250;2023-04-24T00:09:25;9.53;;;6.73;;
15049;SDS011;7622;42.724;23.250;2023-04-24T00:11:52;7.37;;;5.60;;
15049;SDS011;7622;42.724;23.250;2023-04-24T00:14:19;6.93;;;6.33;;
15049;SDS011;7622;42.724;23.250;2023-04-24T00:16:45;8.03;;;6.40;;
15049;SDS011;7622;42.724;23.250;2023-04-24T00:19:12;6.67;;;5.80;;
15049;SDS011;7622;42.724;23.250;2023-04-24T00:21:40;9.17;;;6.50;;
15049;SDS011;7622;42.724;23.250;2023-04-24T00:24:07;6.87;;;6.10;;
15049;SDS011;7622;42.724;23.250;2023-04-24T00:26:35;5.87;;;5.37;;
15049;SDS011;7622;42.724;23.250;2023-04-24T00:29:02;6.67;;;6.10;;
15049;SDS011;7622;42.724;23.250;2023-04-24T00:31:28;7.17;;;6.47;;
15049;SDS011;7622;42.724;23.250;2023-04-24T00:33:55;8.53;;;7.40;;
15049;SDS011;7622;42.724;23.250;2023-04-24T00:36:22;9.13;;;8.23;;
15049;SDS011;7622;42.724;23.250;2023-04-24T00:38:50;10.37;;;8.60;;
15049;SDS011;7622;42.724;23.250;2023-04-24T00:41:16;13.17;;;8.80;;
15049;SDS011;7622;42.724;23.250;2023-04-24T00:43:44;13.80;;;9.67;;
15049;SDS011;7622;42.724;23.250;2023-04-24T00:46:10;13.80;;;9.60;;
15049;SDS011;7622;42.724;23.250;2023-04-24T00:48:38;12.07;;;9.90;;
15049;SDS011;7622;42.724;23.250;2023-04-24T00:51:05;15.37;;;9.13;;
15049;SDS011;7622;42.724;23.250;2023-04-24T00:53:32;13.40;;;9.30;;
15049;SDS011;7622;42.724;23.250;2023-04-24T00:56:01;11.03;;;9.13;;
15049;SDS011;7622;42.724;23.250;2023-04-24T00:58:28;13.63;;;9.60;;
15049;SDS011;7622;42.724;23.250;2023-04-24T01:00:55;10.20;;;9.20;;
15049;SDS011;7622;42.724;23.250;2023-04-24T01:03:24;13.37;;;8.80;;
15049;SDS011;7622;42.724;23.250;2023-04-24T01:05:55;11.57;;;9.23;;
15049;SDS011;7622;42.724;23.250;2023-04-24T01:08:22;10.77;;;9.63;;
15049;SDS011;7622;42.724;23.250;2023-04-24T01:10:49;13.10;;;9.23;;
15049;SDS011;7622;42.724;23.250;2023-04-24T01:13:19;10.53;;;9.43;;
15049;SDS011;7622;42.724;23.250;2023-04-24T01:15:46;12.60;;;9.13;;
15049;SDS011;7622;42.724;23.250;2023-04-24T01:18:13;10.23;;;9.20;;
15049;SDS011;7622;42.724;23.250;2023-04-24T01:20:41;11.17;;;9.83;;
15049;SDS011;7622;42.724;23.250;2023-04-24T01:23:11;11.87;;;9.20;;
15049;SDS011;7622;42.724;23.250;2023-04-24T01:25:38;11.63;;;8.70;;
15049;SDS011;7622;42.724;23.250;2023-04-24T01:28:05;10.97;;;9.20;;
15049;SDS011;7622;42.724;23.250;2023-04-24T01:30:32;10.20;;;9.10;;
15049;SDS011;7622;42.724;23.250;2023-04-24T01:32:59;8.17;;;7.37;;
15049;SDS011;7622;42.724;23.250;2023-04-24T01:35:26;10.40;;;9.23;;
15049;SDS011;7622;42.724;23.250;2023-04-24T01:37:53;14.93;;;9.10;;
15049;SDS011;7622;42.724;23.250;2023-04-24T01:40:21;9.33;;;7.83;;
15049;SDS011;7622;42.724;23.250;2023-04-24T01:42:48;12.47;;;9.77;;
15049;SDS011;7622;42.724;23.250;2023-04-24T01:45:15;11.20;;;9.50;;
15049;SDS011;7622;42.724;23.250;2023-04-24T01:47:42;7.77;;;7.17;;
15049;SDS011;7622;42.724;23.250;2023-04-24T01:50:10;8.57;;;7.13;;
15049;SDS011;7622;42.724;23.250;2023-04-24T01:52:37;8.53;;;7.03;;
15049;SDS011;7622;42.724;23.250;2023-04-24T01:55:04;9.33;;;8.43;;
15049;SDS011;7622;42.724;23.250;2023-04-24T01:57:33;8.43;;;7.37;;
15049;SDS011;7622;42.724;23.250;2023-04-24T02:00:01;9.03;;;7.97;;
15049;SDS011;7622;42.724;23.250;2023-04-24T02:02:29;8.10;;;7.40;;
15049;SDS011;7622;42.724;23.250;2023-04-24T02:04:56;10.30;;;8.03;;
15049;SDS011;7622;42.724;23.250;2023-04-24T02:07:23;9.43;;;8.43;;
15049;SDS011;7622;42.724;23.250;2023-04-24T02:09:50;10.10;;;8.93;;
15049;SDS011;7622;42.724;23.250;2023-04-24T02:12:17;9.23;;;8.33;;
15049;SDS011;7622;42.724;23.250;2023-04-24T02:14:45;10.43;;;8.90;;
15049;SDS011;7622;42.724;23.250;2023-04-24T02:17:11;9.33;;;8.27;;
15049;SDS011;7622;42.724;23.250;2023-04-24T02:19:40;9.60;;;8.77;;
15049;SDS011;7622;42.724;23.250;2023-04-24T02:22:07;9.30;;;8.43;;
15049;SDS011;7622;42.724;23.250;2023-04-24T02:24:35;9.87;;;8.50;;
15049;SDS011;7622;42.724;23.250;2023-04-24T02:27:02;17.87;;;8.47;;
15049;SDS011;7622;42.724;23.250;2023-04-24T02:29:29;10.37;;;8.50;;
15049;SDS011;7622;42.724;23.250;2023-04-24T02:31:57;10.17;;;8.67;;
15049;SDS011;7622;42.724;23.250;2023-04-24T02:34:24;12.00;;;9.30;;
15049;SDS011;7622;42.724;23.250;2023-04-24T02:36:51;10.37;;;8.17;;
15049;SDS011;7622;42.724;23.250;2023-04-24T02:39:19;9.13;;;8.17;;
15049;SDS011;7622;42.724;23.250;2023-04-24T02:41:45;10.83;;;8.23;;
15049;SDS011;7622;42.724;23.250;2023-04-24T02:44:12;16.30;;;8.37;;
15049;SDS011;7622;42.724;23.250;2023-04-24T02:46:39;11.53;;;8.60;;
15049;SDS011;7622;42.724;23.250;2023-04-24T02:49:08;11.47;;;7.67;;
15049;SDS011;7622;42.724;23.250;2023-04-24T02:51:37;15.37;;;8.70;;
15049;SDS011;7622;42.724;23.250;2023-04-24T02:54:06;8.80;;;8.00;;
15049;SDS011;7622;42.724;23.250;2023-04-24T02:56:33;12.47;;;8.70;;
15049;SDS011;7622;42.724;23.250;2023-04-24T02:59:00;15.47;;;8.20;;
15049;SDS011;7622;42.724;23.250;2023-04-24T03:01:26;13.33;;;7.67;;
15049;SDS011;7622;42.724;23.250;2023-04-24T03:03:53;9.27;;;8.23;;
15049;SDS011;7622;42.724;23.250;2023-04-24T03:06:21;12.10;;;8.03;;
15049;SDS011;7622;42.724;23.250;2023-04-24T03:08:48;9.23;;;7.53;;
15049;SDS011;7622;42.724;23.250;2023-04-24T03:11:15;11.20;;;8.27;;
15049;SDS011;7622;42.724;23.250;2023-04-24T04:25:00;10.97;;;7.60;;
15049;SDS011;7622;42.724;23.250;2023-04-24T04:27:28;13.87;;;6.80;;
15049;SDS011;7622;42.724;23.250;2023-04-24T04:29:57;12.83;;;7.77;;
15049;SDS011;7622;42.724;23.250;2023-04-24T04:32:24;18.53;;;8.20;;
15049;SDS011;7622;42.724;23.250;2023-04-24T04:34:51;14.90;;;8.73;;
15049;SDS011;7622;42.724;23.250;2023-04-24T04:37:18;10.87;;;8.03;;
15049;SDS011;7622;42.724;23.250;2023-04-24T04:39:45;14.30;;;8.83;;
15049;SDS011;7622;42.724;23.250;2023-04-24T04:42:14;10.50;;;7.73;;
15049;SDS011;7622;42.724;23.250;2023-04-24T04:44:40;12.10;;;8.90;;
15049;SDS011;7622;42.724;23.250;2023-04-24T04:47:08;9.23;;;8.33;;
15049;SDS011;7622;42.724;23.250;2023-04-24T04:49:36;39.07;;;9.90;;
15049;SDS011;7622;42.724;23.250;2023-04-24T04:52:03;15.50;;;8.63;;
15049;SDS011;7622;42.724;23.250;2023-04-24T04:54:30;16.27;;;9.17;;
15049;SDS011;7622;42.724;23.250;2023-04-24T04:56:57;13.20;;;8.10;;
15049;SDS011;7622;42.724;23.250;2023-04-24T04:59:25;9.40;;;8.40;;
15049;SDS011;7622;42.724;23.250;2023-04-24T05:01:52;15.43;;;8.40;;
15049;SDS011;7622;42.724;23.250;2023-04-24T05:04:19;14.70;;;8.27;;
15049;SDS011;7622;42.724;23.250;2023-04-24T05:06:46;20.43;;;8.97;;
15049;SDS011;7622;42.724;23.250;2023-04-24T05:09:13;10.43;;;7.70;;
15049;SDS011;7622;42.724;23.250;2023-04-24T05:11:40;23.73;;;9.63;;
15049;SDS011;7622;42.724;23.250;2023-04-24T05:14:07;19.03;;;8.97;;
15049;SDS011;7622;42.724;23.250;2023-04-24T05:16:35;15.20;;;8.63;;
15049;SDS011;7622;42.724;23.250;2023-04-24T05:19:03;11.83;;;7.83;;
15049;SDS011;7622;42.724;23.250;2023-04-24T05:21:29;18.47;;;8.07;;
15049;SDS011;7622;42.724;23.250;2023-04-24T05:23:57;16.23;;;8.80;;
15049;SDS011;7622;42.724;23.250;2023-04-24T05:26:24;14.13;;;9.17;;
15049;SDS011;7622;42.724;23.250;2023-04-24T05:28:50;10.40;;;8.07;;
15049;SDS011;7622;42.724;23.250;2023-04-24T05:31:17;12.97;;;7.60;;
15049;SDS011;7622;42.724;23.250;2023-04-24T05:33:45;10.70;;;7.20;;
15049;SDS011;7622;42.724;23.250;2023-04-24T05:36:12;12.63;;;7.90;;
15049;SDS011;7622;42.724;23.250;2023-04-24T05:38:39;9.17;;;7.17;;
15049;SDS011;7622;42.724;23.250;2023-04-24T05:41:06;10.27;;;7.47;;
15049;SDS011;7622;42.724;23.250;2023-04-24T05:43:33;10.73;;;7.50;;
15049;SDS011;7622;42.724;23.250;2023-04-24T05:46:00;11.17;;;7.73;;
15049;SDS011;7622;42.724;23.250;2023-04-24T05:48:26;11.77;;;7.90;;
15049;SDS011;7622;42.724;23.250;2023-04-24T05:50:55;12.43;;;7.77;;
15049;SDS011;7622;42.724;23.250;2023-04-24T05:53:21;14.23;;;8.10;;
15049;SDS011;7622;42.724;23.250;2023-04-24T05:55:48;7.33;;;6.43;;
15049;SDS011;7622;42.724;23.250;2023-04-24T05:58:15;13.50;;;7.63;;
15049;SDS011;7622;42.724;23.250;2023-04-24T06:00:42;12.73;;;7.03;;
15049;SDS011;7622;42.724;23.250;2023-04-24T06:03:11;22.37;;;7.80;;
15049;SDS011;7622;42.724;23.250;2023-04-24T06:05:38;10.57;;;7.00;;
15049;SDS011;7622;42.724;23.250;2023-04-24T06:08:06;10.07;;;7.30;;
15049;SDS011;7622;42.724;23.250;2023-04-24T06:10:33;9.10;;;6.53;;
15049;SDS011;7622;42.724;23.250;2023-04-24T06:13:03;10.13;;;6.20;;
15049;SDS011;7622;42.724;23.250;2023-04-24T06:15:33;13.03;;;6.93;;
15049;SDS011;7622;42.724;23.250;2023-04-24T06:18:03;9.63;;;6.80;;
15049;SDS011;7622;42.724;23.250;2023-04-24T06:20:30;7.77;;;6.70;;
15049;SDS011;7622;42.724;23.250;2023-04-24T06:22:57;12.60;;;6.93;;
15049;SDS011;7622;42.724;23.250;2023-04-24T06:25:26;7.57;;;6.87;;
15049;SDS011;7622;42.724;23.250;2023-04-24T06:27:52;8.13;;;6.67;;
15049;SDS011;7622;42.724;23.250;2023-04-24T06:30:20;10.70;;;7.40;;
15049;SDS011;7622;42.724;23.250;2023-04-24T06:32:46;27.77;;;13.50;;
15049;SDS011;7622;42.724;23.250;2023-04-24T06:35:13;10.00;;;7.27;;
15049;SDS011;7622;42.724;23.250;2023-04-24T06:37:40;8.87;;;6.77;;
15049;SDS011;7622;42.724;23.250;2023-04-24T06:40:08;10.67;;;7.20;;
15049;SDS011;7622;42.724;23.250;2023-04-24T06:42:37;7.73;;;6.43;;
15049;SDS011;7622;42.724;23.250;2023-04-24T06:45:04;7.37;;;6.63;;
15049;SDS011;7622;42.724;23.250;2023-04-24T06:47:31;11.83;;;6.90;;
15049;SDS011;7622;42.724;23.250;2023-04-24T06:49:58;9.10;;;7.33;;
15049;SDS011;7622;42.724;23.250;2023-04-24T06:52:28;7.33;;;6.57;;
15049;SDS011;7622;42.724;23.250;2023-04-24T06:54:59;13.73;;;7.87;;
15049;SDS011;7622;42.724;23.250;2023-04-24T06:57:27;10.87;;;7.33;;
15049;SDS011;7622;42.724;23.250;2023-04-24T06:59:56;12.37;;;6.47;;
15049;SDS011;7622;42.724;23.250;2023-04-24T07:02:23;6.67;;;6.17;;
15049;SDS011;7622;42.724;23.250;2023-04-24T07:04:50;10.03;;;7.50;;
15049;SDS011;7622;42.724;23.250;2023-04-24T07:07:17;7.13;;;5.93;;
15049;SDS011;7622;42.724;23.250;2023-04-24T07:09:45;10.67;;;7.73;;
15049;SDS011;7622;42.724;23.250;2023-04-24T07:12:15;10.40;;;6.83;;
15049;SDS011;7622;42.724;23.250;2023-04-24T07:14:45;9.23;;;6.80;;
15049;SDS011;7622;42.724;23.250;2023-04-24T07:17:13;8.27;;;7.27;;
15049;SDS011;7622;42.724;23.250;2023-04-24T07:19:41;12.73;;;8.73;;
15049;SDS011;7622;42.724;23.250;2023-04-24T07:22:08;12.57;;;9.23;;
15049;SDS011;7622;42.724;23.250;2023-04-24T07:24:42;14.63;;;10.57;;
15049;SDS011;7622;42.724;23.250;2023-04-24T07:27:13;10.97;;;8.00;;
15049;SDS011;7622;42.724;23.250;2023-04-24T07:29:40;13.63;;;7.80;;
15049;SDS011;7622;42.724;23.250;2023-04-24T07:32:07;9.73;;;7.97;;
15049;SDS011;7622;42.724;23.250;2023-04-24T07:34:35;8.43;;;7.60;;
15049;SDS011;7622;42.724;23.250;2023-04-24T07:37:02;8.97;;;7.40;;
15049;SDS011;7622;42.724;23.250;2023-04-24T07:39:29;7.40;;;6.63;;
15049;SDS011;7622;42.724;23.250;2023-04-24T07:41:56;12.80;;;6.90;;
15049;SDS011;7622;42.724;23.250;2023-04-24T07:44:24;9.77;;;7.07;;
15049;SDS011;7622;42.724;23.250;2023-04-24T07:46:51;10.40;;;7.10;;
15049;SDS011;7622;42.724;23.250;2023-04-24T07:49:17;10.10;;;7.07;;
15049;SDS011;7622;42.724;23.250;2023-04-24T07:51:46;9.20;;;7.67;;
15049;SDS011;7622;42.724;23.250;2023-04-24T07:54:13;16.77;;;7.07;;
15049;SDS011;7622;42.724;23.250;2023-04-24T07:56:40;8.97;;;7.40;;
15049;SDS011;7622;42.724;23.250;2023-04-24T07:59:08;14.73;;;7.10;;
15049;SDS011;7622;42.724;23.250;2023-04-24T08:01:35;9.80;;;6.00;;
15049;SDS011;7622;42.724;23.250;2023-04-24T08:04:02;12.20;;;6.97;;
15049;SDS011;7622;42.724;23.250;2023-04-24T08:06:28;7.47;;;6.80;;
15049;SDS011;7622;42.724;23.250;2023-04-24T08:08:58;7.57;;;6.80;;
15049;SDS011;7622;42.724;23.250;2023-04-24T08:11:26;6.83;;;6.07;;
15049;SDS011;7622;42.724;23.250;2023-04-24T08:13:53;6.93;;;6.27;;
15049;SDS011;7622;42.724;23.250;2023-04-24T08:16:20;9.47;;;6.40;;
15049;SDS011;7622;42.724;23.250;2023-04-24T08:18:48;7.97;;;6.97;;
15049;SDS011;7622;42.724;23.250;2023-04-24T08:21:15;8.17;;;6.77;;
15049;SDS011;7622;42.724;23.250;2023-04-24T08:23:43;6.70;;;5.93;;
15049;SDS011;7622;42.724;23.250;2023-04-24T08:26:12;10.17;;;6.90;;
15049;SDS011;7622;42.724;23.250;2023-04-24T08:28:39;7.00;;;6.40;;
15049;SDS011;7622;42.724;23.250;2023-04-24T08:31:06;12.03;;;9.60;;
15049;SDS011;7622;42.724;23.250;2023-04-24T08:33:33;8.57;;;6.37;;
15049;SDS011;7622;42.724;23.250;2023-04-24T08:36:00;8.53;;;7.00;;
15049;SDS011;7622;42.724;23.250;2023-04-24T08:38:28;9.57;;;6.67;;
15049;SDS011;7622;42.724;23.250;2023-04-24T08:40:54;8.20;;;6.37;;
15049;SDS011;7622;42.724;23.250;2023-04-24T08:43:26;26.93;;;7.13;;
15049;SDS011;7622;42.724;23.250;2023-04-24T08:45:55;12.60;;;6.53;;
15049;SDS011;7622;42.724;23.250;2023-04-24T08:48:23;10.20;;;6.20;;
15049;SDS011;7622;42.724;23.250;2023-04-24T08:50:50;5.97;;;5.47;;
15049;SDS011;7622;42.724;23.250;2023-04-24T08:53:17;7.37;;;6.20;;
15049;SDS011;7622;42.724;23.250;2023-04-24T08:55:46;7.27;;;5.77;;
15049;SDS011;7622;42.724;23.250;2023-04-24T08:58:14;8.03;;;7.23;;
15049;SDS011;7622;42.724;23.250;2023-04-24T09:00:44;8.43;;;6.27;;
15049;SDS011;7622;42.724;23.250;2023-04-24T09:03:13;9.63;;;6.37;;
15049;SDS011;7622;42.724;23.250;2023-04-24T09:05:41;7.03;;;6.33;;
15049;SDS011;7622;42.724;23.250;2023-04-24T09:08:11;10.10;;;6.40;;
15049;SDS011;7622;42.724;23.250;2023-04-24T09:10:39;10.17;;;6.13;;
15049;SDS011;7622;42.724;23.250;2023-04-24T09:13:06;9.03;;;6.73;;
15049;SDS011;7622;42.724;23.250;2023-04-24T09:15:35;9.60;;;6.10;;
15049;SDS011;7622;42.724;23.250;2023-04-24T09:18:03;6.57;;;5.97;;
15049;SDS011;7622;42.724;23.250;2023-04-24T09:20:31;8.07;;;6.17;;
15049;SDS011;7622;42.724;23.250;2023-04-24T09:22:58;6.43;;;5.73;;
15049;SDS011;7622;42.724;23.250;2023-04-24T09:25:25;7.03;;;5.53;;
15049;SDS011;7622;42.724;23.250;2023-04-24T09:28:00;6.57;;;5.97;;
15049;SDS011;7622;42.724;23.250;2023-04-24T09:30:28;7.30;;;6.53;;
15049;SDS011;7622;42.724;23.250;2023-04-24T09:46:18;6.83;;;6.20;;
15049;SDS011;7622;42.724;23.250;2023-04-24T09:48:46;7.37;;;6.10;;
15049;SDS011;7622;42.724;23.250;2023-04-24T09:51:13;6.83;;;5.60;;
15049;SDS011;7622;42.724;23.250;2023-04-24T09:53:44;6.90;;;6.30;;
15049;SDS011;7622;42.724;23.250;2023-04-24T09:56:12;10.80;;;5.77;;
15049;SDS011;7622;42.724;23.250;2023-04-24T09:58:39;6.50;;;5.90;;
15049;SDS011;7622;42.724;23.250;2023-04-24T10:01:06;7.57;;;5.53;;
15049;SDS011;7622;42.724;23.250;2023-04-24T10:03:34;16.23;;;5.73;;
15049;SDS011;7622;42.724;23.250;2023-04-24T10:06:01;5.80;;;5.30;;
15049;SDS011;7622;42.724;23.250;2023-04-24T10:08:33;8.67;;;5.70;;
15049;SDS011;7622;42.724;23.250;2023-04-24T10:11:01;7.10;;;5.43;;
15049;SDS011;7622;42.724;23.250;2023-04-24T10:13:28;7.77;;;5.20;;
15049;SDS011;7622;42.724;23.250;2023-04-24T10:15:55;5.93;;;5.33;;
15049;SDS011;7622;42.724;23.250;2023-04-24T10:18:22;5.50;;;5.10;;
15049;SDS011;7622;42.724;23.250;2023-04-24T10:20:52;6.53;;;5.57;;
15049;SDS011;7622;42.724;23.250;2023-04-24T10:23:20;6.43;;;5.33;;
15049;SDS011;7622;42.724;23.250;2023-04-24T10:25:48;5.93;;;5.43;;
15049;SDS011;7622;42.724;23.250;2023-04-24T10:28:17;7.87;;;5.33;;
15049;SDS011;7622;42.724;23.250;2023-04-24T10:30:45;6.00;;;4.73;;
15049;SDS011;7622;42.724;23.250;2023-04-24T10:33:12;7.50;;;5.30;;
15049;SDS011;7622;42.724;23.250;2023-04-24T10:35:41;8.53;;;5.33;;
15049;SDS011;7622;42.724;23.250;2023-04-24T10:38:12;18.57;;;5.73;;
15049;SDS011;7622;42.724;23.250;2023-04-24T10:40:40;5.40;;;5.00;;
15049;SDS011;7622;42.724;23.250;2023-04-24T10:43:08;5.03;;;4.53;;
15049;SDS011;7622;42.724;23.250;2023-04-24T10:45:36;4.97;;;4.47;;
15049;SDS011;7622;42.724;23.250;2023-04-24T10:48:04;5.63;;;4.60;;
15049;SDS011;7622;42.724;23.250;2023-04-24T10:50:42;7.33;;;5.07;;
15049;SDS011;7622;42.724;23.250;2023-04-24T10:53:16;9.90;;;4.77;;
15049;SDS011;7622;42.724;23.250;2023-04-24T10:55:45;8.50;;;5.37;;
15049;SDS011;7622;42.724;23.250;2023-04-24T10:58:14;5.10;;;4.57;;
15049;SDS011;7622;42.724;23.250;2023-04-24T11:00:42;5.10;;;4.60;;
15049;SDS011;7622;42.724;23.250;2023-04-24T11:03:22;5.57;;;5.07;;
15049;SDS011;7622;42.724;23.250;2023-04-24T11:05:51;6.37;;;4.80;;
15049;SDS011;7622;42.724;23.250;2023-04-24T11:08:23;5.67;;;4.40;;
15049;SDS011;7622;42.724;23.250;2023-04-24T11:10:56;4.70;;;4.40;;
15049;SDS011;7622;42.724;23.250;2023-04-24T11:13:25;5.33;;;4.83;;
15049;SDS011;7622;42.724;23.250;2023-04-24T11:18:41;12.10;;;5.07;;
15049;SDS011;7622;42.724;23.250;2023-04-24T11:21:11;10.70;;;4.97;;
15049;SDS011;7622;42.724;23.250;2023-04-24T11:23:40;5.20;;;4.40;;
15049;SDS011;7622;42.724;23.250;2023-04-24T11:26:10;4.43;;;4.10;;
15049;SDS011;7622;42.724;23.250;2023-04-24T11:28:43;5.50;;;4.10;;
15049;SDS011;7622;42.724;23.250;2023-04-24T11:34:07;4.93;;;3.80;;
15049;SDS011;7622;42.724;23.250;2023-04-24T11:36:35;4.57;;;4.27;;
15049;SDS011;7622;42.724;23.250;2023-04-24T11:39:04;4.87;;;4.40;;
15049;SDS011;7622;42.724;23.250;2023-04-24T11:41:31;4.37;;;4.07;;
15049;SDS011;7622;42.724;23.250;2023-04-24T11:43:58;4.23;;;3.90;;
15049;SDS011;7622;42.724;23.250;2023-04-24T11:46:28;3.97;;;3.77;;
15049;SDS011;7622;42.724;23.250;2023-04-24T11:48:56;3.80;;;3.60;;
15049;SDS011;7622;42.724;23.250;2023-04-24T11:51:25;4.13;;;3.87;;
15049;SDS011;7622;42.724;23.250;2023-04-24T11:53:52;5.03;;;3.90;;
15049;SDS011;7622;42.724;23.250;2023-04-24T11:56:22;6.70;;;4.33;;
15049;SDS011;7622;42.724;23.250;2023-04-24T11:58:51;4.80;;;4.40;;
15049;SDS011;7622;42.724;23.250;2023-04-24T12:01:19;4.90;;;4.50;;
15049;SDS011;7622;42.724;23.250;2023-04-24T12:03:49;9.23;;;4.83;;
15049;SDS011;7622;42.724;23.250;2023-04-24T12:06:18;6.63;;;5.00;;
15049;SDS011;7622;42.724;23.250;2023-04-24T12:08:45;6.20;;;4.57;;
15049;SDS011;7622;42.724;23.250;2023-04-24T12:11:14;5.20;;;4.70;;
15049;SDS011;7622;42.724;23.250;2023-04-24T12:13:44;7.23;;;4.80;;
15049;SDS011;7622;42.724;23.250;2023-04-24T12:16:11;6.13;;;4.10;;
15049;SDS011;7622;42.724;23.250;2023-04-24T12:18:41;8.23;;;4.00;;
15049;SDS011;7622;42.724;23.250;2023-04-24T12:21:17;4.37;;;3.97;;
15049;SDS011;7622;42.724;23.250;2023-04-24T12:23:45;6.37;;;4.10;;
15049;SDS011;7622;42.724;23.250;2023-04-24T12:26:15;5.20;;;4.70;;
15049;SDS011;7622;42.724;23.250;2023-04-24T12:28:46;3.97;;;3.60;;
15049;SDS011;7622;42.724;23.250;2023-04-24T12:31:14;3.97;;;3.67;;
15049;SDS011;7622;42.724;23.250;2023-04-24T12:33:41;6.80;;;3.67;;
15049;SDS011;7622;42.724;23.250;2023-04-24T12:36:09;4.60;;;4.20;;
15049;SDS011;7622;42.724;23.250;2023-04-24T12:38:38;4.70;;;4.30;;
15049;SDS011;7622;42.724;23.250;2023-04-24T12:41:07;4.30;;;4.07;;
15049;SDS011;7622;42.724;23.250;2023-04-24T12:43:36;5.20;;;3.93;;
15049;SDS011;7622;42.724;23.250;2023-04-24T12:46:04;4.80;;;4.50;;
15049;SDS011;7622;42.724;23.250;2023-04-24T12:48:31;6.00;;;4.80;;
15049;SDS011;7622;42.724;23.250;2023-04-24T12:50:58;4.30;;;4.00;;
15049;SDS011;7622;42.724;23.250;2023-04-24T12:53:27;4.57;;;4.10;;
15049;SDS011;7622;42.724;23.250;2023-04-24T12:55:56;4.77;;;4.33;;
15049;SDS011;7622;42.724;23.250;2023-04-24T12:58:23;4.07;;;3.77;;
15049;SDS011;7622;42.724;23.250;2023-04-24T13:00:50;4.37;;;4.00;;
15049;SDS011;7622;42.724;23.250;2023-04-24T13:03:18;4.60;;;3.60;;
15049;SDS011;7622;42.724;23.250;2023-04-24T13:05:47;7.53;;;4.27;;
15049;SDS011;7622;42.724;23.250;2023-04-24T13:08:14;3.67;;;3.47;;
15049;SDS011;7622;42.724;23.250;2023-04-24T13:10:41;4.17;;;3.83;;
15049;SDS011;7622;42.724;23.250;2023-04-24T13:13:08;4.10;;;3.80;;
15049;SDS011;7622;42.724;23.250;2023-04-24T13:15:35;4.73;;;4.37;;
15049;SDS011;7622;42.724;23.250;2023-04-24T13:18:02;4.30;;;3.90;;
15049;SDS011;7622;42.724;23.250;2023-04-24T13:20:30;4.43;;;4.03;;
15049;SDS011;7622;42.724;23.250;2023-04-24T13:22:57;3.70;;;3.50;;
15049;SDS011;7622;42.724;23.250;2023-04-24T13:25:24;5.60;;;3.60;;
15049;SDS011;7622;42.724;23.250;2023-04-24T13:27:51;4.40;;;3.50;;
15049;SDS011;7622;42.724;23.250;2023-04-24T13:30:18;4.53;;;3.40;;
15049;SDS011;7622;42.724;23.250;2023-04-24T13:32:45;4.67;;;3.40;;
15049;SDS011;7622;42.724;23.250;2023-04-24T13:35:12;3.97;;;3.20;;
15049;SDS011;7622;42.724;23.250;2023-04-24T13:37:40;3.33;;;3.10;;
15049;SDS011;7622;42.724;23.250;2023-04-24T13:40:08;3.50;;;3.30;;
15049;SDS011;7622;42.724;23.250;2023-04-24T13:42:35;3.90;;;3.40;;
15049;SDS011;7622;42.724;23.250;2023-04-24T13:45:02;4.00;;;3.80;;
15049;SDS011;7622;42.724;23.250;2023-04-24T13:47:30;6.33;;;3.50;;
15049;SDS011;7622;42.724;23.250;2023-04-24T13:49:57;4.40;;;3.60;;
15049;SDS011;7622;42.724;23.250;2023-04-24T13:52:24;3.63;;;3.33;;
15049;SDS011;7622;42.724;23.250;2023-04-24T13:54:52;4.20;;;3.67;;
15049;SDS011;7622;42.724;23.250;2023-04-24T13:57:19;3.53;;;3.33;;
15049;SDS011;7622;42.724;23.250;2023-04-24T13:59:45;5.40;;;3.60;;
15049;SDS011;7622;42.724;23.250;2023-04-24T14:02:13;4.03;;;3.73;;
15049;SDS011;7622;42.724;23.250;2023-04-24T14:04:39;3.63;;;3.40;;
15049;SDS011;7622;42.724;23.250;2023-04-24T14:07:07;5.20;;;3.77;;
15049;SDS011;7622;42.724;23.250;2023-04-24T14:09:34;3.93;;;3.63;;
15049;SDS011;7622;42.724;23.250;2023-04-24T14:12:02;4.30;;;3.90;;
15049;SDS011;7622;42.724;23.250;2023-04-24T14:14:29;3.70;;;3.40;;
15049;SDS011;7622;42.724;23.250;2023-04-24T14:16:56;4.57;;;3.50;;
15049;SDS011;7622;42.724;23.250;2023-04-24T14:19:23;3.90;;;3.50;;
15049;SDS011;7622;42.724;23.250;2023-04-24T14:21:50;3.83;;;3.53;;
15049;SDS011;7622;42.724;23.250;2023-04-24T14:24:17;3.83;;;3.50;;
15049;SDS011;7622;42.724;23.250;2023-04-24T14:26:44;3.97;;;3.50;;
15049;SDS011;7622;42.724;23.250;2023-04-24T14:29:16;3.60;;;3.30;;
15049;SDS011;7622;42.724;23.250;2023-04-24T14:31:43;4.70;;;3.37;;
15049;SDS011;7622;42.724;23.250;2023-04-24T14:34:10;6.30;;;3.50;;
15049;SDS011;7622;42.724;23.250;2023-04-24T14:36:36;5.17;;;3.40;;
15049;SDS011;7622;42.724;23.250;2023-04-24T14:39:03;3.90;;;3.60;;
15049;SDS011;7622;42.724;23.250;2023-04-24T14:41:32;5.27;;;4.50;;
15049;SDS011;7622;42.724;23.250;2023-04-24T14:44:00;4.63;;;3.63;;
15049;SDS011;7622;42.724;23.250;2023-04-24T14:46:29;5.93;;;4.10;;
15049;SDS011;7622;42.724;23.250;2023-04-24T14:48:56;5.57;;;3.83;;
15049;SDS011;7622;42.724;23.250;2023-04-24T14:51:23;4.63;;;3.20;;
15049;SDS011;7622;42.724;23.250;2023-04-24T14:53:50;4.50;;;3.20;;
15049;SDS011;7622;42.724;23.250;2023-04-24T14:56:17;5.73;;;3.90;;
15049;SDS011;7622;42.724;23.250;2023-04-24T14:58:44;4.93;;;4.10;;
15049;SDS011;7622;42.724;23.250;2023-04-24T15:01:15;4.70;;;4.30;;
15049;SDS011;7622;42.724;23.250;2023-04-24T15:03:49;4.47;;;4.17;;
15049;SDS011;7622;42.724;23.250;2023-04-24T15:06:18;4.00;;;3.60;;
15049;SDS011;7622;42.724;23.250;2023-04-24T15:08:46;4.23;;;3.83;;
15049;SDS011;7622;42.724;23.250;2023-04-24T15:11:14;4.27;;;4.00;;
15049;SDS011;7622;42.724;23.250;2023-04-24T15:13:41;4.80;;;4.40;;
15049;SDS011;7622;42.724;23.250;2023-04-24T15:16:10;5.83;;;4.30;;
15049;SDS011;7622;42.724;23.250;2023-04-24T15:18:36;4.50;;;4.20;;
15049;SDS011;7622;42.724;23.250;2023-04-24T15:21:05;4.23;;;3.97;;
15049;SDS011;7622;42.724;23.250;2023-04-24T15:23:32;6.23;;;3.83;;
15049;SDS011;7622;42.724;23.250;2023-04-24T15:25:59;5.23;;;3.90;;
15049;SDS011;7622;42.724;23.250;2023-04-24T15:28:34;5.70;;;4.00;;
15049;SDS011;7622;42.724;23.250;2023-04-24T15:31:03;4.10;;;3.80;;
15049;SDS011;7622;42.724;23.250;2023-04-24T15:33:30;4.63;;;4.23;;
15049;SDS011;7622;42.724;23.250;2023-04-24T15:35:57;4.67;;;4.33;;
15049;SDS011;7622;42.724;23.250;2023-04-24T15:38:25;4.80;;;4.37;;
15049;SDS011;7622;42.724;23.250;2023-04-24T15:40:52;4.03;;;3.63;;
15049;SDS011;7622;42.724;23.250;2023-04-24T15:43:18;6.13;;;4.57;;
15049;SDS011;7622;42.724;23.250;2023-04-24T15:45:45;6.83;;;4.97;;
15049;SDS011;7622;42.724;23.250;2023-04-24T15:48:12;5.87;;;5.03;;
15049;SDS011;7622;42.724;23.250;2023-04-24T15:50:39;5.20;;;4.70;;
15049;SDS011;7622;42.724;23.250;2023-04-24T15:53:06;5.50;;;5.00;;
15049;SDS011;7622;42.724;23.250;2023-04-24T15:55:34;4.70;;;4.27;;
15049;SDS011;7622;42.724;23.250;2023-04-24T15:58:01;5.10;;;4.70;;
15049;SDS011;7622;42.724;23.250;2023-04-24T16:00:28;7.20;;;5.17;;
15049;SDS011;7622;42.724;23.250;2023-04-24T16:02:58;7.43;;;5.50;;
15049;SDS011;7622;42.724;23.250;2023-04-24T16:05:26;6.80;;;5.40;;
15049;SDS011;7622;42.724;23.250;2023-04-24T16:07:53;6.17;;;5.17;;
15049;SDS011;7622;42.724;23.250;2023-04-24T16:10:20;8.17;;;5.07;;
15049;SDS011;7622;42.724;23.250;2023-04-24T16:12:49;8.67;;;6.23;;
15049;SDS011;7622;42.724;23.250;2023-04-24T16:15:21;6.10;;;5.70;;
15049;SDS011;7622;42.724;23.250;2023-04-24T16:17:48;8.07;;;6.57;;